VTBD/DMK METAR and TAF weather

Enter ICAO airport designator
Station Type Date Time Source
VTBD METAR 2022/01/26 20:30 UTC NOAA

VTBD 262030Z 11001KT 9999 FEW030 26/25 Q1009 NOSIG


Station Type Date Time Source
VTBD Decoded METAR 2022/01/26 20:30 UTC NOAA

Don Muang, Thailand (VTBD) 13-55N 100-36E 12M
Jan 26, 2022 - 03:30 PM EST / 2022.01.26 2030 UTC
Wind: from the ESE (110 degrees) at 1 MPH (1 KT):0
Visibility: greater than 7 mile(s):0
Sky conditions: mostly clear
Temperature: 78 F (26 C)
Dew Point: 77 F (25 C)
Relative Humidity: 94%
Pressure (altimeter): 29.80 in. Hg (1009 hPa)
ob: VTBD 262030Z 11001KT 9999 FEW030 26/25 Q1009 NOSIG
cycle: 20

Station Type Date Time Source
VTBD TAF 2022/01/26 18:36 UTC NOAA

TAF TAF VTBD 261700Z 2618/2724 19005KT 9999 FEW020
BECMG 2622/2624 09005KT 3000 BR
BECMG 2702/2704 30005KT 9999 NSW
BECMG 2706/2708 20005KT

Example: see airport list